sensor_id;sensor_type;location;lat;lon;timestamp;P1;durP1;ratioP1;P2;durP2;ratioP2
21721;SDS011;11023;48.274;7.794;2023-03-23T00:01:57;4.10;;;2.20;;
21721;SDS011;11023;48.274;7.794;2023-03-23T00:04:22;3.45;;;2.05;;
21721;SDS011;11023;48.274;7.794;2023-03-23T00:06:54;3.40;;;2.30;;
21721;SDS011;11023;48.274;7.794;2023-03-23T00:09:19;4.10;;;2.15;;
21721;SDS011;11023;48.274;7.794;2023-03-23T00:11:50;5.25;;;2.33;;
21721;SDS011;11023;48.274;7.794;2023-03-23T00:14:16;3.55;;;2.00;;
21721;SDS011;11023;48.274;7.794;2023-03-23T00:16:47;3.72;;;2.22;;
21721;SDS011;11023;48.274;7.794;2023-03-23T00:19:14;4.45;;;1.88;;
21721;SDS011;11023;48.274;7.794;2023-03-23T00:21:41;2.83;;;2.10;;
21721;SDS011;11023;48.274;7.794;2023-03-23T00:26:35;3.17;;;2.00;;
21721;SDS011;11023;48.274;7.794;2023-03-23T00:29:05;5.05;;;2.00;;
21721;SDS011;11023;48.274;7.794;2023-03-23T00:31:32;4.68;;;2.33;;
21721;SDS011;11023;48.274;7.794;2023-03-23T00:34:00;3.72;;;2.35;;
21721;SDS011;11023;48.274;7.794;2023-03-23T00:36:29;5.15;;;2.45;;
21721;SDS011;11023;48.274;7.794;2023-03-23T00:38:56;3.63;;;2.38;;
21721;SDS011;11023;48.274;7.794;2023-03-23T00:41:23;4.35;;;1.85;;
21721;SDS011;11023;48.274;7.794;2023-03-23T00:43:52;2.20;;;1.50;;
21721;SDS011;11023;48.274;7.794;2023-03-23T00:46:18;3.35;;;1.50;;
21721;SDS011;11023;48.274;7.794;2023-03-23T00:48:45;1.60;;;1.23;;
21721;SDS011;11023;48.274;7.794;2023-03-23T00:51:11;2.80;;;1.65;;
21721;SDS011;11023;48.274;7.794;2023-03-23T00:53:40;2.35;;;1.50;;
21721;SDS011;11023;48.274;7.794;2023-03-23T00:56:07;1.35;;;1.20;;
21721;SDS011;11023;48.274;7.794;2023-03-23T00:58:36;3.20;;;1.85;;
21721;SDS011;11023;48.274;7.794;2023-03-23T01:01:02;3.10;;;1.50;;
21721;SDS011;11023;48.274;7.794;2023-03-23T01:03:28;3.67;;;1.58;;
21721;SDS011;11023;48.274;7.794;2023-03-23T01:05:54;3.95;;;1.35;;
21721;SDS011;11023;48.274;7.794;2023-03-23T01:08:20;1.40;;;1.20;;
21721;SDS011;11023;48.274;7.794;2023-03-23T01:10:46;2.92;;;1.30;;
21721;SDS011;11023;48.274;7.794;2023-03-23T01:13:13;2.35;;;1.40;;
21721;SDS011;11023;48.274;7.794;2023-03-23T01:15:39;2.25;;;1.30;;
21721;SDS011;11023;48.274;7.794;2023-03-23T01:18:06;2.65;;;1.30;;
21721;SDS011;11023;48.274;7.794;2023-03-23T01:20:33;3.83;;;1.58;;
21721;SDS011;11023;48.274;7.794;2023-03-23T01:23:00;4.03;;;1.67;;
21721;SDS011;11023;48.274;7.794;2023-03-23T01:25:30;2.03;;;1.50;;
21721;SDS011;11023;48.274;7.794;2023-03-23T01:27:57;2.13;;;1.35;;
21721;SDS011;11023;48.274;7.794;2023-03-23T01:30:24;2.75;;;1.40;;
21721;SDS011;11023;48.274;7.794;2023-03-23T01:32:51;1.35;;;1.20;;
21721;SDS011;11023;48.274;7.794;2023-03-23T01:35:17;2.70;;;1.33;;
21721;SDS011;11023;48.274;7.794;2023-03-23T01:37:43;2.13;;;1.52;;
21721;SDS011;11023;48.274;7.794;2023-03-23T01:40:09;2.38;;;1.40;;
21721;SDS011;11023;48.274;7.794;2023-03-23T01:42:36;2.45;;;1.35;;
21721;SDS011;11023;48.274;7.794;2023-03-23T01:53:38;2.10;;;1.40;;
21721;SDS011;11023;48.274;7.794;2023-03-23T01:56:10;1.60;;;1.30;;
21721;SDS011;11023;48.274;7.794;2023-03-23T01:58:38;1.42;;;1.33;;
21721;SDS011;11023;48.274;7.794;2023-03-23T02:01:06;1.70;;;1.30;;
21721;SDS011;11023;48.274;7.794;2023-03-23T02:03:37;3.03;;;1.60;;
21721;SDS011;11023;48.274;7.794;2023-03-23T02:06:05;2.72;;;1.50;;
21721;SDS011;11023;48.274;7.794;2023-03-23T02:08:31;1.40;;;1.30;;
21721;SDS011;11023;48.274;7.794;2023-03-23T02:10:58;3.40;;;1.38;;
21721;SDS011;11023;48.274;7.794;2023-03-23T02:13:24;2.90;;;1.60;;
21721;SDS011;11023;48.274;7.794;2023-03-23T02:18:32;2.47;;;1.50;;
21721;SDS011;11023;48.274;7.794;2023-03-23T02:22:09;2.05;;;1.40;;
21721;SDS011;11023;48.274;7.794;2023-03-23T02:24:13;2.80;;;1.30;;
21721;SDS011;11023;48.274;7.794;2023-03-23T02:27:01;2.10;;;1.42;;
21721;SDS011;11023;48.274;7.794;2023-03-23T02:35:20;4.20;;;1.77;;
21721;SDS011;11023;48.274;7.794;2023-03-23T02:37:52;1.73;;;1.35;;
21721;SDS011;11023;48.274;7.794;2023-03-23T02:40:47;1.85;;;1.40;;
21721;SDS011;11023;48.274;7.794;2023-03-23T02:43:14;1.38;;;1.20;;
21721;SDS011;11023;48.274;7.794;2023-03-23T02:45:43;2.67;;;1.45;;
21721;SDS011;11023;48.274;7.794;2023-03-23T02:48:10;3.00;;;1.60;;
21721;SDS011;11023;48.274;7.794;2023-03-23T02:50:40;3.03;;;1.48;;
21721;SDS011;11023;48.274;7.794;2023-03-23T02:53:10;2.80;;;1.17;;
21721;SDS011;11023;48.274;7.794;2023-03-23T02:55:39;1.65;;;1.10;;
21721;SDS011;11023;48.274;7.794;2023-03-23T02:58:10;2.13;;;1.20;;
21721;SDS011;11023;48.274;7.794;2023-03-23T03:00:37;2.25;;;1.08;;
21721;SDS011;11023;48.274;7.794;2023-03-23T03:03:03;1.45;;;1.25;;
21721;SDS011;11023;48.274;7.794;2023-03-23T03:05:44;3.55;;;1.50;;
21721;SDS011;11023;48.274;7.794;2023-03-23T03:08:18;2.75;;;1.40;;
21721;SDS011;11023;48.274;7.794;2023-03-23T03:11:10;3.00;;;1.33;;
21721;SDS011;11023;48.274;7.794;2023-03-23T03:16:33;2.63;;;1.27;;
21721;SDS011;11023;48.274;7.794;2023-03-23T03:19:02;2.47;;;1.20;;
21721;SDS011;11023;48.274;7.794;2023-03-23T03:21:30;2.45;;;1.30;;
21721;SDS011;11023;48.274;7.794;2023-03-23T03:23:58;1.75;;;1.10;;
21721;SDS011;11023;48.274;7.794;2023-03-23T03:26:27;2.10;;;1.00;;
21721;SDS011;11023;48.274;7.794;2023-03-23T03:28:57;1.83;;;1.10;;
21721;SDS011;11023;48.274;7.794;2023-03-23T03:31:29;1.90;;;1.30;;
21721;SDS011;11023;48.274;7.794;2023-03-23T03:33:58;1.60;;;1.20;;
21721;SDS011;11023;48.274;7.794;2023-03-23T03:36:27;5.07;;;1.25;;
21721;SDS011;11023;48.274;7.794;2023-03-23T03:38:59;1.90;;;1.27;;
21721;SDS011;11023;48.274;7.794;2023-03-23T03:41:32;2.83;;;1.23;;
21721;SDS011;11023;48.274;7.794;2023-03-23T03:44:03;2.88;;;1.00;;
21721;SDS011;11023;48.274;7.794;2023-03-23T03:46:30;3.20;;;1.13;;
21721;SDS011;11023;48.274;7.794;2023-03-23T03:48:56;1.42;;;1.15;;
21721;SDS011;11023;48.274;7.794;2023-03-23T03:51:23;1.92;;;1.10;;
21721;SDS011;11023;48.274;7.794;2023-03-23T03:53:50;2.97;;;1.13;;
21721;SDS011;11023;48.274;7.794;2023-03-23T03:56:15;3.00;;;1.20;;
21721;SDS011;11023;48.274;7.794;2023-03-23T03:58:41;2.25;;;1.38;;
21721;SDS011;11023;48.274;7.794;2023-03-23T04:01:08;1.67;;;1.10;;
21721;SDS011;11023;48.274;7.794;2023-03-23T04:03:40;2.10;;;1.20;;
21721;SDS011;11023;48.274;7.794;2023-03-23T04:06:06;2.17;;;1.20;;
21721;SDS011;11023;48.274;7.794;2023-03-23T04:08:33;2.17;;;1.30;;
21721;SDS011;11023;48.274;7.794;2023-03-23T04:10:59;2.28;;;1.20;;
21721;SDS011;11023;48.274;7.794;2023-03-23T04:13:25;2.75;;;1.10;;
21721;SDS011;11023;48.274;7.794;2023-03-23T04:15:50;1.08;;;0.98;;
21721;SDS011;11023;48.274;7.794;2023-03-23T04:18:16;1.55;;;0.90;;
21721;SDS011;11023;48.274;7.794;2023-03-23T04:20:46;1.23;;;1.05;;
21721;SDS011;11023;48.274;7.794;2023-03-23T04:23:14;2.17;;;1.23;;
21721;SDS011;11023;48.274;7.794;2023-03-23T04:25:45;2.03;;;1.05;;
21721;SDS011;11023;48.274;7.794;2023-03-23T04:28:12;3.15;;;1.20;;
21721;SDS011;11023;48.274;7.794;2023-03-23T04:30:38;2.05;;;1.20;;
21721;SDS011;11023;48.274;7.794;2023-03-23T04:33:03;1.90;;;1.20;;
21721;SDS011;11023;48.274;7.794;2023-03-23T04:35:30;1.25;;;1.00;;
21721;SDS011;11023;48.274;7.794;2023-03-23T04:37:56;1.85;;;1.40;;
21721;SDS011;11023;48.274;7.794;2023-03-23T04:40:22;2.20;;;1.30;;
21721;SDS011;11023;48.274;7.794;2023-03-23T04:42:48;2.20;;;1.20;;
21721;SDS011;11023;48.274;7.794;2023-03-23T04:45:18;2.90;;;1.20;;
21721;SDS011;11023;48.274;7.794;2023-03-23T04:47:46;3.28;;;1.45;;
21721;SDS011;11023;48.274;7.794;2023-03-23T04:50:18;2.20;;;1.20;;
21721;SDS011;11023;48.274;7.794;2023-03-23T04:52:45;2.33;;;1.50;;
21721;SDS011;11023;48.274;7.794;2023-03-23T04:55:11;1.92;;;1.38;;
21721;SDS011;11023;48.274;7.794;2023-03-23T04:57:38;2.45;;;1.30;;
21721;SDS011;11023;48.274;7.794;2023-03-23T05:00:04;1.60;;;1.30;;
21721;SDS011;11023;48.274;7.794;2023-03-23T05:02:35;2.80;;;1.52;;
21721;SDS011;11023;48.274;7.794;2023-03-23T05:05:01;3.03;;;1.45;;
21721;SDS011;11023;48.274;7.794;2023-03-23T05:07:27;1.33;;;0.98;;
21721;SDS011;11023;48.274;7.794;2023-03-23T05:09:52;1.75;;;1.40;;
21721;SDS011;11023;48.274;7.794;2023-03-23T05:12:18;2.42;;;1.52;;
21721;SDS011;11023;48.274;7.794;2023-03-23T05:14:43;4.40;;;1.58;;
21721;SDS011;11023;48.274;7.794;2023-03-23T05:17:09;2.85;;;1.23;;
21721;SDS011;11023;48.274;7.794;2023-03-23T05:19:35;1.63;;;1.23;;
21721;SDS011;11023;48.274;7.794;2023-03-23T05:22:01;2.65;;;1.52;;
21721;SDS011;11023;48.274;7.794;2023-03-23T05:24:30;1.70;;;1.30;;
21721;SDS011;11023;48.274;7.794;2023-03-23T05:26:57;2.53;;;1.40;;
21721;SDS011;11023;48.274;7.794;2023-03-23T05:29:24;2.70;;;1.50;;
21721;SDS011;11023;48.274;7.794;2023-03-23T05:31:50;2.53;;;1.50;;
21721;SDS011;11023;48.274;7.794;2023-03-23T05:34:18;2.42;;;1.40;;
21721;SDS011;11023;48.274;7.794;2023-03-23T05:36:44;3.47;;;1.65;;
21721;SDS011;11023;48.274;7.794;2023-03-23T05:39:11;2.05;;;1.50;;
21721;SDS011;11023;48.274;7.794;2023-03-23T05:41:36;2.08;;;1.50;;
21721;SDS011;11023;48.274;7.794;2023-03-23T05:44:03;2.65;;;1.50;;
21721;SDS011;11023;48.274;7.794;2023-03-23T05:46:29;2.75;;;1.60;;
21721;SDS011;11023;48.274;7.794;2023-03-23T05:48:55;2.67;;;1.70;;
21721;SDS011;11023;48.274;7.794;2023-03-23T05:51:21;2.47;;;1.45;;
21721;SDS011;11023;48.274;7.794;2023-03-23T05:53:47;6.43;;;1.70;;
21721;SDS011;11023;48.274;7.794;2023-03-23T05:56:13;2.97;;;1.63;;
21721;SDS011;11023;48.274;7.794;2023-03-23T05:58:39;2.42;;;1.65;;
21721;SDS011;11023;48.274;7.794;2023-03-23T06:01:08;4.72;;;1.92;;
21721;SDS011;11023;48.274;7.794;2023-03-23T06:03:34;2.75;;;2.03;;
21721;SDS011;11023;48.274;7.794;2023-03-23T06:06:01;2.60;;;1.90;;
21721;SDS011;11023;48.274;7.794;2023-03-23T06:08:28;3.40;;;1.85;;
21721;SDS011;11023;48.274;7.794;2023-03-23T06:10:54;2.22;;;1.60;;
21721;SDS011;11023;48.274;7.794;2023-03-23T06:13:21;2.92;;;1.50;;
21721;SDS011;11023;48.274;7.794;2023-03-23T06:15:48;2.67;;;1.50;;
21721;SDS011;11023;48.274;7.794;2023-03-23T06:18:14;2.22;;;1.67;;
21721;SDS011;11023;48.274;7.794;2023-03-23T06:20:39;2.88;;;2.00;;
21721;SDS011;11023;48.274;7.794;2023-03-23T06:23:07;2.65;;;1.80;;
21721;SDS011;11023;48.274;7.794;2023-03-23T06:25:34;2.17;;;1.50;;
21721;SDS011;11023;48.274;7.794;2023-03-23T06:27:59;4.22;;;1.70;;
21721;SDS011;11023;48.274;7.794;2023-03-23T06:30:25;4.60;;;1.80;;
21721;SDS011;11023;48.274;7.794;2023-03-23T06:32:55;2.28;;;1.80;;
21721;SDS011;11023;48.274;7.794;2023-03-23T06:35:21;5.35;;;2.53;;
21721;SDS011;11023;48.274;7.794;2023-03-23T06:37:47;7.63;;;2.10;;
21721;SDS011;11023;48.274;7.794;2023-03-23T06:40:13;4.55;;;2.10;;
21721;SDS011;11023;48.274;7.794;2023-03-23T06:42:39;4.05;;;2.20;;
21721;SDS011;11023;48.274;7.794;2023-03-23T06:45:05;4.32;;;2.15;;
21721;SDS011;11023;48.274;7.794;2023-03-23T06:47:32;5.20;;;2.22;;
21721;SDS011;11023;48.274;7.794;2023-03-23T06:49:58;3.05;;;2.00;;
21721;SDS011;11023;48.274;7.794;2023-03-23T06:52:24;3.88;;;1.90;;
21721;SDS011;11023;48.274;7.794;2023-03-23T06:54:51;3.28;;;1.80;;
21721;SDS011;11023;48.274;7.794;2023-03-23T06:57:17;3.08;;;1.75;;
21721;SDS011;11023;48.274;7.794;2023-03-23T06:59:43;4.15;;;1.90;;
21721;SDS011;11023;48.274;7.794;2023-03-23T07:02:10;2.38;;;1.70;;
21721;SDS011;11023;48.274;7.794;2023-03-23T07:04:36;4.32;;;2.22;;
21721;SDS011;11023;48.274;7.794;2023-03-23T07:07:03;3.17;;;1.92;;
21721;SDS011;11023;48.274;7.794;2023-03-23T07:09:30;2.72;;;1.70;;
21721;SDS011;11023;48.274;7.794;2023-03-23T07:11:56;4.50;;;1.95;;
21721;SDS011;11023;48.274;7.794;2023-03-23T07:14:22;4.82;;;1.92;;
21721;SDS011;11023;48.274;7.794;2023-03-23T07:16:48;3.40;;;1.98;;
21721;SDS011;11023;48.274;7.794;2023-03-23T07:19:13;2.53;;;1.85;;
21721;SDS011;11023;48.274;7.794;2023-03-23T07:21:40;2.97;;;1.92;;
21721;SDS011;11023;48.274;7.794;2023-03-23T07:24:05;5.00;;;2.30;;
21721;SDS011;11023;48.274;7.794;2023-03-23T07:26:36;3.25;;;2.22;;
21721;SDS011;11023;48.274;7.794;2023-03-23T07:29:02;4.57;;;2.17;;
21721;SDS011;11023;48.274;7.794;2023-03-23T07:31:28;4.82;;;2.80;;
21721;SDS011;11023;48.274;7.794;2023-03-23T07:33:53;6.40;;;2.42;;
21721;SDS011;11023;48.274;7.794;2023-03-23T07:36:19;4.30;;;2.30;;
21721;SDS011;11023;48.274;7.794;2023-03-23T07:38:45;3.75;;;2.35;;
21721;SDS011;11023;48.274;7.794;2023-03-23T07:41:11;3.72;;;2.35;;
21721;SDS011;11023;48.274;7.794;2023-03-23T07:43:36;3.15;;;2.28;;
21721;SDS011;11023;48.274;7.794;2023-03-23T07:46:02;3.58;;;2.30;;
21721;SDS011;11023;48.274;7.794;2023-03-23T07:48:28;7.53;;;2.30;;
21721;SDS011;11023;48.274;7.794;2023-03-23T07:50:53;2.92;;;1.95;;
21721;SDS011;11023;48.274;7.794;2023-03-23T07:53:19;3.83;;;2.20;;
21721;SDS011;11023;48.274;7.794;2023-03-23T07:55:46;3.90;;;2.38;;
21721;SDS011;11023;48.274;7.794;2023-03-23T07:58:12;3.80;;;2.15;;
21721;SDS011;11023;48.274;7.794;2023-03-23T08:00:43;4.75;;;2.00;;
21721;SDS011;11023;48.274;7.794;2023-03-23T08:03:09;4.30;;;2.13;;
21721;SDS011;11023;48.274;7.794;2023-03-23T08:05:35;5.15;;;2.20;;
21721;SDS011;11023;48.274;7.794;2023-03-23T08:08:01;5.68;;;2.30;;
21721;SDS011;11023;48.274;7.794;2023-03-23T08:10:26;5.85;;;2.28;;
21721;SDS011;11023;48.274;7.794;2023-03-23T08:12:53;4.55;;;2.58;;
21721;SDS011;11023;48.274;7.794;2023-03-23T08:15:21;3.58;;;2.60;;
21721;SDS011;11023;48.274;7.794;2023-03-23T08:17:47;3.13;;;2.17;;
21721;SDS011;11023;48.274;7.794;2023-03-23T08:20:15;3.97;;;2.08;;
21721;SDS011;11023;48.274;7.794;2023-03-23T08:22:42;3.67;;;2.25;;
21721;SDS011;11023;48.274;7.794;2023-03-23T08:25:11;3.33;;;2.30;;
21721;SDS011;11023;48.274;7.794;2023-03-23T08:27:45;5.43;;;2.30;;
21721;SDS011;11023;48.274;7.794;2023-03-23T08:30:12;3.50;;;2.22;;
21721;SDS011;11023;48.274;7.794;2023-03-23T08:32:41;5.07;;;2.45;;
21721;SDS011;11023;48.274;7.794;2023-03-23T08:35:07;3.20;;;2.40;;
21721;SDS011;11023;48.274;7.794;2023-03-23T08:37:34;4.55;;;2.72;;
21721;SDS011;11023;48.274;7.794;2023-03-23T08:40:00;3.30;;;2.20;;
21721;SDS011;11023;48.274;7.794;2023-03-23T08:42:32;3.47;;;2.17;;
21721;SDS011;11023;48.274;7.794;2023-03-23T08:44:58;3.38;;;2.40;;
21721;SDS011;11023;48.274;7.794;2023-03-23T08:47:24;4.45;;;2.20;;
21721;SDS011;11023;48.274;7.794;2023-03-23T08:49:50;3.55;;;2.30;;
21721;SDS011;11023;48.274;7.794;2023-03-23T08:52:18;3.17;;;2.00;;
21721;SDS011;11023;48.274;7.794;2023-03-23T08:54:44;3.70;;;2.38;;
21721;SDS011;11023;48.274;7.794;2023-03-23T08:57:12;2.78;;;1.85;;
21721;SDS011;11023;48.274;7.794;2023-03-23T08:59:39;4.07;;;2.30;;
21721;SDS011;11023;48.274;7.794;2023-03-23T09:02:06;3.53;;;2.42;;
21721;SDS011;11023;48.274;7.794;2023-03-23T09:04:34;3.00;;;2.03;;
21721;SDS011;11023;48.274;7.794;2023-03-23T09:07:00;4.15;;;2.20;;
21721;SDS011;11023;48.274;7.794;2023-03-23T09:09:26;3.95;;;2.40;;
21721;SDS011;11023;48.274;7.794;2023-03-23T09:11:52;3.55;;;2.20;;
21721;SDS011;11023;48.274;7.794;2023-03-23T09:14:18;3.63;;;2.22;;
21721;SDS011;11023;48.274;7.794;2023-03-23T09:16:44;6.35;;;2.63;;
21721;SDS011;11023;48.274;7.794;2023-03-23T09:19:11;3.05;;;2.20;;
21721;SDS011;11023;48.274;7.794;2023-03-23T09:21:37;3.75;;;1.98;;
21721;SDS011;11023;48.274;7.794;2023-03-23T09:24:04;3.88;;;2.33;;
21721;SDS011;11023;48.274;7.794;2023-03-23T09:26:30;2.65;;;1.90;;
21721;SDS011;11023;48.274;7.794;2023-03-23T09:28:57;4.28;;;2.17;;
21721;SDS011;11023;48.274;7.794;2023-03-23T09:31:23;4.28;;;2.00;;
21721;SDS011;11023;48.274;7.794;2023-03-23T09:33:52;4.10;;;2.30;;
21721;SDS011;11023;48.274;7.794;2023-03-23T09:36:21;2.90;;;2.10;;
21721;SDS011;11023;48.274;7.794;2023-03-23T09:38:49;3.90;;;2.35;;
21721;SDS011;11023;48.274;7.794;2023-03-23T09:52:07;3.67;;;2.10;;
21721;SDS011;11023;48.274;7.794;2023-03-23T09:54:46;3.92;;;2.00;;
21721;SDS011;11023;48.274;7.794;2023-03-23T09:57:16;2.77;;;2.03;;
21721;SDS011;11023;48.274;7.794;2023-03-23T09:59:54;3.45;;;1.70;;
21721;SDS011;11023;48.274;7.794;2023-03-23T10:02:44;4.18;;;2.05;;
21721;SDS011;11023;48.274;7.794;2023-03-23T10:05:31;2.63;;;1.98;;
21721;SDS011;11023;48.274;7.794;2023-03-23T10:08:01;3.28;;;1.98;;
21721;SDS011;11023;48.274;7.794;2023-03-23T10:16:44;2.75;;;2.10;;
21721;SDS011;11023;48.274;7.794;2023-03-23T10:19:35;5.75;;;2.25;;
21721;SDS011;11023;48.274;7.794;2023-03-23T10:22:09;3.03;;;2.00;;
21721;SDS011;11023;48.274;7.794;2023-03-23T10:24:37;1.43;;;1.10;;
21721;SDS011;11023;48.274;7.794;2023-03-23T10:27:55;3.30;;;2.10;;
21721;SDS011;11023;48.274;7.794;2023-03-23T10:35:38;2.70;;;1.70;;
21721;SDS011;11023;48.274;7.794;2023-03-23T10:38:21;5.00;;;1.65;;
21721;SDS011;11023;48.274;7.794;2023-03-23T10:40:56;2.20;;;1.63;;
21721;SDS011;11023;48.274;7.794;2023-03-23T10:43:36;2.90;;;1.90;;
21721;SDS011;11023;48.274;7.794;2023-03-23T10:51:28;3.47;;;1.73;;
21721;SDS011;11023;48.274;7.794;2023-03-23T10:54:00;2.70;;;1.67;;
21721;SDS011;11023;48.274;7.794;2023-03-23T10:56:35;2.53;;;1.70;;
21721;SDS011;11023;48.274;7.794;2023-03-23T10:59:29;2.60;;;1.63;;
21721;SDS011;11023;48.274;7.794;2023-03-23T11:01:58;2.88;;;2.00;;
21721;SDS011;11023;48.274;7.794;2023-03-23T11:04:28;3.50;;;1.58;;
21721;SDS011;11023;48.274;7.794;2023-03-23T11:07:01;3.35;;;2.05;;
21721;SDS011;11023;48.274;7.794;2023-03-23T11:09:39;3.78;;;1.63;;
21721;SDS011;11023;48.274;7.794;2023-03-23T11:12:19;4.50;;;1.75;;
21721;SDS011;11023;48.274;7.794;2023-03-23T11:14:45;3.25;;;1.65;;
21721;SDS011;11023;48.274;7.794;2023-03-23T11:17:25;2.53;;;1.65;;
21721;SDS011;11023;48.274;7.794;2023-03-23T11:19:52;2.28;;;1.90;;
21721;SDS011;11023;48.274;7.794;2023-03-23T11:22:29;2.55;;;1.63;;
21721;SDS011;11023;48.274;7.794;2023-03-23T11:25:03;2.55;;;1.77;;
21721;SDS011;11023;48.274;7.794;2023-03-23T11:27:30;2.72;;;1.70;;
21721;SDS011;11023;48.274;7.794;2023-03-23T11:30:11;2.10;;;1.58;;
21721;SDS011;11023;48.274;7.794;2023-03-23T11:32:46;2.55;;;1.90;;
21721;SDS011;11023;48.274;7.794;2023-03-23T11:35:30;4.35;;;2.10;;
21721;SDS011;11023;48.274;7.794;2023-03-23T11:37:57;2.03;;;1.75;;
21721;SDS011;11023;48.274;7.794;2023-03-23T11:40:28;2.95;;;1.90;;
21721;SDS011;11023;48.274;7.794;2023-03-23T11:43:00;4.00;;;2.25;;
21721;SDS011;11023;48.274;7.794;2023-03-23T11:45:38;4.80;;;1.58;;
21721;SDS011;11023;48.274;7.794;2023-03-23T11:48:18;3.58;;;1.92;;
21721;SDS011;11023;48.274;7.794;2023-03-23T11:50:57;2.72;;;1.85;;
21721;SDS011;11023;48.274;7.794;2023-03-23T11:53:29;3.20;;;1.63;;
21721;SDS011;11023;48.274;7.794;2023-03-23T11:56:12;3.65;;;1.70;;
21721;SDS011;11023;48.274;7.794;2023-03-23T11:58:55;2.50;;;1.70;;
21721;SDS011;11023;48.274;7.794;2023-03-23T12:20:25;2.63;;;1.70;;
21721;SDS011;11023;48.274;7.794;2023-03-23T12:23:03;3.30;;;1.65;;
21721;SDS011;11023;48.274;7.794;2023-03-23T12:33:55;3.40;;;1.90;;
21721;SDS011;11023;48.274;7.794;2023-03-23T12:48:11;6.38;;;2.00;;
21721;SDS011;11023;48.274;7.794;2023-03-23T12:51:10;4.13;;;1.80;;
21721;SDS011;11023;48.274;7.794;2023-03-23T12:53:41;4.13;;;2.15;;
21721;SDS011;11023;48.274;7.794;2023-03-23T12:56:20;7.95;;;2.05;;
21721;SDS011;11023;48.274;7.794;2023-03-23T13:01:54;4.55;;;2.10;;
21721;SDS011;11023;48.274;7.794;2023-03-23T13:04:35;2.95;;;2.00;;
21721;SDS011;11023;48.274;7.794;2023-03-23T13:07:05;4.38;;;1.80;;
21721;SDS011;11023;48.274;7.794;2023-03-23T13:12:05;4.57;;;1.70;;
21721;SDS011;11023;48.274;7.794;2023-03-23T13:22:18;2.33;;;1.38;;
21721;SDS011;11023;48.274;7.794;2023-03-23T13:25:06;3.40;;;1.75;;
21721;SDS011;11023;48.274;7.794;2023-03-23T13:27:38;2.05;;;1.45;;
21721;SDS011;11023;48.274;7.794;2023-03-23T13:30:04;3.15;;;1.58;;
21721;SDS011;11023;48.274;7.794;2023-03-23T13:32:47;2.88;;;1.40;;
21721;SDS011;11023;48.274;7.794;2023-03-23T13:35:13;2.92;;;1.85;;
21721;SDS011;11023;48.274;7.794;2023-03-23T13:37:46;3.20;;;1.70;;
21721;SDS011;11023;48.274;7.794;2023-03-23T13:42:49;3.15;;;1.50;;
21721;SDS011;11023;48.274;7.794;2023-03-23T13:45:21;3.15;;;1.73;;
21721;SDS011;11023;48.274;7.794;2023-03-23T13:50:48;3.30;;;1.75;;
21721;SDS011;11023;48.274;7.794;2023-03-23T13:53:35;3.72;;;2.13;;
21721;SDS011;11023;48.274;7.794;2023-03-23T13:58:49;5.45;;;1.98;;
21721;SDS011;11023;48.274;7.794;2023-03-23T14:01:32;2.47;;;1.65;;
21721;SDS011;11023;48.274;7.794;2023-03-23T14:04:01;2.83;;;1.55;;
21721;SDS011;11023;48.274;7.794;2023-03-23T14:06:34;3.15;;;1.60;;
21721;SDS011;11023;48.274;7.794;2023-03-23T14:09:44;4.80;;;1.77;;
21721;SDS011;11023;48.274;7.794;2023-03-23T14:11:58;3.55;;;1.50;;
21721;SDS011;11023;48.274;7.794;2023-03-23T14:14:38;2.47;;;1.45;;
21721;SDS011;11023;48.274;7.794;2023-03-23T14:17:25;2.50;;;1.70;;
21721;SDS011;11023;48.274;7.794;2023-03-23T14:19:54;5.03;;;1.55;;
21721;SDS011;11023;48.274;7.794;2023-03-23T14:22:28;2.90;;;1.70;;
21721;SDS011;11023;48.274;7.794;2023-03-23T14:25:00;3.60;;;1.60;;
21721;SDS011;11023;48.274;7.794;2023-03-23T14:27:34;3.25;;;1.67;;
21721;SDS011;11023;48.274;7.794;2023-03-23T14:30:01;3.53;;;1.60;;
21721;SDS011;11023;48.274;7.794;2023-03-23T14:35:01;2.65;;;1.60;;
21721;SDS011;11023;48.274;7.794;2023-03-23T14:37:32;3.15;;;1.75;;
21721;SDS011;11023;48.274;7.794;2023-03-23T14:40:00;3.38;;;1.58;;
21721;SDS011;11023;48.274;7.794;2023-03-23T14:42:30;3.40;;;1.75;;
21721;SDS011;11023;48.274;7.794;2023-03-23T14:44:59;5.57;;;1.80;;
21721;SDS011;11023;48.274;7.794;2023-03-23T14:47:29;2.45;;;1.60;;
21721;SDS011;11023;48.274;7.794;2023-03-23T14:49:59;3.83;;;1.63;;
21721;SDS011;11023;48.274;7.794;2023-03-23T14:52:28;3.42;;;1.50;;
21721;SDS011;11023;48.274;7.794;2023-03-23T14:55:14;4.73;;;1.67;;
21721;SDS011;11023;48.274;7.794;2023-03-23T14:57:49;3.75;;;1.67;;
21721;SDS011;11023;48.274;7.794;2023-03-23T15:00:29;4.47;;;1.63;;
21721;SDS011;11023;48.274;7.794;2023-03-23T15:03:00;3.10;;;1.70;;
21721;SDS011;11023;48.274;7.794;2023-03-23T15:05:29;2.95;;;1.50;;
21721;SDS011;11023;48.274;7.794;2023-03-23T15:08:00;3.65;;;1.50;;
21721;SDS011;11023;48.274;7.794;2023-03-23T15:10:30;2.83;;;1.50;;
21721;SDS011;11023;48.274;7.794;2023-03-23T15:12:56;2.67;;;1.50;;
21721;SDS011;11023;48.274;7.794;2023-03-23T15:15:26;2.88;;;1.38;;
21721;SDS011;11023;48.274;7.794;2023-03-23T15:17:54;3.38;;;1.60;;
21721;SDS011;11023;48.274;7.794;2023-03-23T15:20:22;3.28;;;1.50;;
21721;SDS011;11023;48.274;7.794;2023-03-23T15:22:50;3.10;;;1.30;;
21721;SDS011;11023;48.274;7.794;2023-03-23T15:25:20;3.53;;;1.63;;
21721;SDS011;11023;48.274;7.794;2023-03-23T15:27:58;5.55;;;1.45;;
21721;SDS011;11023;48.274;7.794;2023-03-23T15:30:46;1.90;;;1.30;;
21721;SDS011;11023;48.274;7.794;2023-03-23T15:33:13;2.83;;;1.25;;
21721;SDS011;11023;48.274;7.794;2023-03-23T15:35:46;1.83;;;1.60;;
21721;SDS011;11023;48.274;7.794;2023-03-23T15:40:54;2.78;;;1.50;;
21721;SDS011;11023;48.274;7.794;2023-03-23T15:43:23;2.33;;;1.60;;
21721;SDS011;11023;48.274;7.794;2023-03-23T15:51:21;2.88;;;1.73;;
21721;SDS011;11023;48.274;7.794;2023-03-23T15:53:49;1.92;;;1.33;;
21721;SDS011;11023;48.274;7.794;2023-03-23T15:56:16;2.88;;;1.67;;
21721;SDS011;11023;48.274;7.794;2023-03-23T15:58:43;3.28;;;1.48;;
21721;SDS011;11023;48.274;7.794;2023-03-23T16:01:13;3.80;;;1.77;;
21721;SDS011;11023;48.274;7.794;2023-03-23T16:03:50;2.63;;;1.67;;
21721;SDS011;11023;48.274;7.794;2023-03-23T16:06:18;2.88;;;1.42;;
21721;SDS011;11023;48.274;7.794;2023-03-23T16:08:45;4.32;;;1.90;;
21721;SDS011;11023;48.274;7.794;2023-03-23T16:11:12;3.38;;;1.70;;
21721;SDS011;11023;48.274;7.794;2023-03-23T16:13:38;2.10;;;1.38;;
21721;SDS011;11023;48.274;7.794;2023-03-23T16:16:05;4.70;;;1.77;;
21721;SDS011;11023;48.274;7.794;2023-03-23T16:18:36;7.90;;;1.60;;
21721;SDS011;11023;48.274;7.794;2023-03-23T16:21:02;1.80;;;1.45;;
21721;SDS011;11023;48.274;7.794;2023-03-23T16:23:28;3.58;;;1.70;;
21721;SDS011;11023;48.274;7.794;2023-03-23T16:25:53;3.33;;;2.00;;
21721;SDS011;11023;48.274;7.794;2023-03-23T16:28:19;3.60;;;2.42;;
21721;SDS011;11023;48.274;7.794;2023-03-23T16:30:45;3.50;;;1.90;;
21721;SDS011;11023;48.274;7.794;2023-03-23T16:33:11;2.53;;;2.20;;
21721;SDS011;11023;48.274;7.794;2023-03-23T16:35:37;3.05;;;2.08;;
21721;SDS011;11023;48.274;7.794;2023-03-23T16:38:03;4.90;;;2.65;;
21721;SDS011;11023;48.274;7.794;2023-03-23T16:40:30;4.80;;;3.25;;
21721;SDS011;11023;48.274;7.794;2023-03-23T16:42:57;5.15;;;2.40;;
21721;SDS011;11023;48.274;7.794;2023-03-23T16:45:23;5.20;;;3.40;;
21721;SDS011;11023;48.274;7.794;2023-03-23T16:47:50;5.30;;;3.30;;
21721;SDS011;11023;48.274;7.794;2023-03-23T16:50:16;5.03;;;2.60;;
21721;SDS011;11023;48.274;7.794;2023-03-23T16:52:43;3.95;;;2.75;;
21721;SDS011;11023;48.274;7.794;2023-03-23T16:55:11;4.15;;;3.50;;
21721;SDS011;11023;48.274;7.794;2023-03-23T16:57:38;3.50;;;1.70;;
21721;SDS011;11023;48.274;7.794;2023-03-23T17:00:05;2.55;;;1.73;;
21721;SDS011;11023;48.274;7.794;2023-03-23T17:02:33;3.33;;;1.60;;
21721;SDS011;11023;48.274;7.794;2023-03-23T17:04:59;3.40;;;1.70;;